Time;durP1;ratioP1;P1;durP2;ratioP2;P2;SDS_P1;SDS_P2;PMS_P1;PMS_P2;Temp;Humidity;BMP_temperature;BMP_pressure;BME280_temperature;BME280_humidity;BME280_pressure;Samples;Min_cycle;Max_cycle;Signal;HPM_P1;HPM_P2
2022/09/05 00:02:23;;;;;;;8.25;5.70;;;17.30;99.90;;;;;;5057740;28;20035;-76
2022/09/05 00:05:02;;;;;;;6.75;6.18;;;17.20;99.90;;;;;;5066723;28;20097;-76
2022/09/05 00:07:49;;;;;;;6.97;6.38;;;17.20;99.90;;;;;;5073043;28;20029;-76
2022/09/05 00:10:35;;;;;;;6.50;5.90;;;17.10;99.90;;;;;;5057056;28;20021;-76
2022/09/05 00:13:04;;;;;;;8.90;7.38;;;17.20;99.90;;;;;;5067333;28;20079;-76
2022/09/05 00:15:54;;;;;;;7.40;6.70;;;17.10;99.90;;;;;;5078167;28;20028;-76
2022/09/05 00:19:09;;;;;;;8.68;6.50;;;17.00;99.90;;;;;;5077157;28;20175;-76
2022/09/05 00:21:38;;;;;;;7.20;6.32;;;17.00;99.90;;;;;;4975537;28;20062;-76
2022/09/05 00:24:12;;;;;;;7.10;6.50;;;16.90;99.90;;;;;;5052202;28;20425;-76
2022/09/05 00:27:39;;;;;;;7.53;6.32;;;17.00;99.90;;;;;;5062387;28;20029;-76
2022/09/05 00:30:16;;;;;;;8.55;6.20;;;16.90;99.90;;;;;;4990479;28;20485;-76
2022/09/05 00:33:17;;;;;;;9.45;6.40;;;16.90;99.90;;;;;;5069581;22;20056;-73
2022/09/05 00:36:01;;;;;;;;;;;16.90;99.90;;;;;;5034790;28;20028;-72
2022/09/05 00:38:28;;;;;;;9.00;6.18;;;16.80;99.90;;;;;;5034445;28;19911;-72
2022/09/05 00:41:01;;;;;;;7.93;6.60;;;16.70;99.90;;;;;;5034543;28;20025;-72
2022/09/05 00:43:31;;;;;;;7.45;6.75;;;16.80;99.90;;;;;;5034314;28;20349;-71
2022/09/05 00:46:12;;;;;;;9.15;6.85;;;16.70;99.90;;;;;;5034452;28;20080;-71
2022/09/05 00:49:16;;;;;;;8.23;7.05;;;16.60;99.90;;;;;;5034190;28;20403;-72
2022/09/05 00:51:50;;;;;;;7.75;7.03;;;16.70;99.90;;;;;;5034094;28;20025;-72
2022/09/05 00:54:43;;;;;;;7.90;7.00;;;16.60;99.90;;;;;;5034118;28;20040;-72
2022/09/05 00:57:49;;;;;;;8.05;7.25;;;16.60;99.90;;;;;;5033976;28;20452;-71
2022/09/05 01:00:23;;;;;;;8.18;7.47;;;16.60;99.90;;;;;;5033901;28;20057;-72
2022/09/05 01:03:09;;;;;;;8.63;7.75;;;16.60;99.90;;;;;;5033894;28;20083;-71
2022/09/05 01:06:12;;;;;;;8.73;7.70;;;16.50;99.90;;;;;;5033850;28;20025;-72
2022/09/05 01:09:26;;;;;;;8.35;7.20;;;16.60;99.90;;;;;;5033852;28;20025;-72
2022/09/05 01:12:13;;;;;;;9.02;8.00;;;16.50;99.90;;;;;;5016486;28;20037;-72
2022/09/05 01:14:52;;;;;;;8.57;7.55;;;16.50;99.90;;;;;;5033803;28;20025;-72
2022/09/05 01:17:54;;;;;;;8.07;7.27;;;16.50;99.90;;;;;;5033628;28;20071;-72
2022/09/05 01:20:27;;;;;;;9.30;8.27;;;16.50;99.90;;;;;;5033625;28;20025;-72
2022/09/05 01:23:26;;;;;;;8.65;7.95;;;16.40;99.90;;;;;;5033683;28;20022;-72
2022/09/05 01:26:04;;;;;;;9.45;8.52;;;16.30;99.90;;;;;;5033406;28;20032;-72
2022/09/05 01:28:39;;;;;;;10.60;8.38;;;16.20;99.90;;;;;;5033522;28;20655;-72
2022/09/05 01:31:34;;;;;;;8.95;8.15;;;16.20;99.90;;;;;;5033635;28;20613;-72
2022/09/05 01:34:11;;;;;;;9.55;8.65;;;15.90;99.90;;;;;;4994246;28;20045;-72
2022/09/05 01:36:58;;;;;;;11.00;8.90;;;15.90;99.90;;;;;;4993957;28;20037;-72
2022/09/05 01:39:57;;;;;;;9.52;8.52;;;15.80;99.90;;;;;;4993930;28;20032;-72
2022/09/05 01:42:52;;;;;;;9.27;8.20;;;15.90;99.90;;;;;;4994117;28;20113;-72
2022/09/05 01:45:27;;;;;;;9.60;8.60;;;15.80;99.90;;;;;;4993932;28;20030;-71
2022/09/05 01:48:25;;;;;;;9.50;8.50;;;15.80;99.90;;;;;;4993774;28;20106;-71
2022/09/05 01:51:11;;;;;;;10.30;9.20;;;15.70;99.90;;;;;;4994025;28;20137;-72
2022/09/05 01:54:14;;;;;;;9.70;8.82;;;15.70;99.90;;;;;;4993709;28;20574;-72
2022/09/05 01:56:43;;;;;;;9.60;8.70;;;15.50;99.90;;;;;;4974120;28;20109;-72
2022/09/05 02:00:06;;;;;;;9.45;8.65;;;15.50;99.90;;;;;;4973606;28;20069;-72
2022/09/05 02:02:51;;;;;;;10.15;9.15;;;15.50;99.90;;;;;;4967984;28;20436;-72
2022/09/05 02:05:23;;;;;;;10.20;9.30;;;15.40;99.90;;;;;;4993564;28;20077;-71
2022/09/05 02:08:15;;;;;;;10.73;9.45;;;15.30;99.90;;;;;;4993349;28;20109;-72
2022/09/05 02:11:08;;;;;;;9.90;8.90;;;15.30;99.90;;;;;;4993415;28;20409;-72
2022/09/05 02:13:34;;;;;;;11.18;9.55;;;15.50;99.90;;;;;;4993281;28;20026;-72
2022/09/05 02:16:10;;;;;;;10.23;9.23;;;15.50;99.90;;;;;;4993270;28;20034;-71
2022/09/05 02:18:35;;;;;;;9.80;8.90;;;15.50;99.90;;;;;;4993221;28;20048;-72
2022/09/05 02:21:08;;;;;;;10.00;9.15;;;15.30;99.90;;;;;;4993226;28;20356;-72
2022/09/05 02:23:47;;;;;;;9.95;9.05;;;15.20;99.90;;;;;;4993084;28;20085;-72
2022/09/05 02:26:29;;;;;;;10.00;8.63;;;15.30;99.90;;;;;;4993282;28;20034;-71
2022/09/05 02:29:02;;;;;;;10.25;9.35;;;15.30;99.90;;;;;;4993167;28;20116;-72
2022/09/05 02:31:55;;;;;;;10.45;9.55;;;15.20;99.90;;;;;;4995355;28;20121;-72
2022/09/05 02:34:41;;;;;;;10.77;9.68;;;15.20;99.90;;;;;;5032428;28;20060;-72
2022/09/05 02:37:20;;;;;;;10.82;9.52;;;15.10;99.90;;;;;;5012727;28;20076;-71
2022/09/05 02:39:58;;;;;;;11.05;9.95;;;15.00;99.90;;;;;;5012620;28;20435;-72
2022/09/05 02:42:47;;;;;;;12.70;10.23;;;15.00;99.90;;;;;;5012573;28;20034;-72
2022/09/05 02:45:22;;;;;;;11.05;9.77;;;15.00;99.90;;;;;;5012734;28;20022;-72
2022/09/05 02:48:02;;;;;;;11.35;10.23;;;15.00;99.90;;;;;;5012531;28;20022;-72
2022/09/05 02:50:34;;;;;;;10.88;9.68;;;15.00;99.90;;;;;;5031319;28;20521;-72
2022/09/05 02:53:01;;;;;;;12.15;10.95;;;14.90;99.90;;;;;;5032231;28;20033;-72
2022/09/05 02:55:52;;;;;;;11.20;10.02;;;14.90;99.90;;;;;;5032169;28;20075;-72
2022/09/05 02:58:36;;;;;;;11.32;10.23;;;15.00;99.90;;;;;;5032125;28;20215;-71
2022/09/05 03:01:28;;;;;;;11.85;10.68;;;14.90;99.90;;;;;;5032182;28;20448;-72
2022/09/05 03:04:10;;;;;;;12.25;10.98;;;14.90;99.90;;;;;;5032019;28;20380;-72
2022/09/05 03:07:02;;;;;;;12.23;10.88;;;14.80;99.90;;;;;;5032158;28;20021;-72
2022/09/05 03:09:33;;;;;;;12.88;10.77;;;14.80;99.90;;;;;;5032050;28;20030;-72
2022/09/05 03:12:02;;;;;;;12.05;10.68;;;14.70;99.90;;;;;;5034998;28;20391;-72
2022/09/05 03:15:01;;;;;;;12.40;11.13;;;14.70;99.90;;;;;;5036001;28;20025;-72
2022/09/05 03:17:49;;;;;;;11.90;10.70;;;14.80;99.90;;;;;;5036401;28;20029;-72
2022/09/05 03:20:52;;;;;;;12.10;10.80;;;14.80;99.90;;;;;;5036289;28;20104;-72
2022/09/05 03:23:53;;;;;;;12.15;10.95;;;14.70;99.90;;;;;;5036069;28;20042;-72
2022/09/05 03:27:08;;;;;;;12.43;11.23;;;14.60;99.90;;;;;;5035819;28;20032;-72
2022/09/05 03:29:55;;;;;;;11.65;10.55;;;14.70;99.90;;;;;;5022560;28;20121;-72
2022/09/05 03:32:58;;;;;;;13.07;11.13;;;14.60;99.90;;;;;;5035385;28;20116;-72
2022/09/05 03:35:50;;;;;;;12.10;10.73;;;14.50;99.90;;;;;;5035529;28;20417;-73
2022/09/05 03:39:15;;;;;;;13.00;11.80;;;14.60;99.90;;;;;;5035484;28;20029;-72
2022/09/05 03:41:44;;;;;;;13.60;11.60;;;14.60;99.90;;;;;;5035504;28;20026;-72
2022/09/05 03:44:26;;;;;;;13.40;12.07;;;14.60;99.90;;;;;;5035333;28;20041;-72
2022/09/05 03:47:16;;;;;;;19.77;12.35;;;14.60;99.90;;;;;;5035497;28;20100;-72
2022/09/05 03:49:51;;;;;;;12.75;11.50;;;14.50;99.90;;;;;;5035627;28;20095;-72
2022/09/05 03:52:22;;;;;;;12.27;11.13;;;14.40;99.90;;;;;;5035621;28;20554;-72
2022/09/05 03:55:14;;;;;;;12.18;10.90;;;14.30;99.90;;;;;;5035380;28;20025;-72
2022/09/05 03:58:21;;;;;;;12.73;11.50;;;14.30;99.90;;;;;;5035657;28;20041;-73
2022/09/05 04:01:06;;;;;;;12.45;11.15;;;14.30;99.90;;;;;;5035414;28;20101;-73
2022/09/05 04:03:41;;;;;;;13.05;11.75;;;14.30;99.90;;;;;;5035409;28;20030;-72
2022/09/05 04:06:39;;;;;;;13.25;12.00;;;14.20;99.90;;;;;;5035484;28;20112;-72
2022/09/05 04:09:16;;;;;;;14.48;11.57;;;14.10;99.90;;;;;;5028112;28;20082;-72
2022/09/05 04:11:56;;;;;;;12.93;11.63;;;14.10;99.90;;;;;;5035233;28;20026;-73
2022/09/05 04:14:34;;;;;;;14.20;12.70;;;14.30;99.90;;;;;;5034922;28;20026;-72
2022/09/05 04:17:18;;;;;;;14.25;12.75;;;14.40;99.90;;;;;;5034816;28;20048;-72
2022/09/05 04:20:08;;;;;;;14.48;12.88;;;14.50;99.90;;;;;;5016873;28;20120;-73
2022/09/05 04:23:00;;;;;;;14.02;12.63;;;14.50;99.90;;;;;;4993366;28;20045;-73
2022/09/05 04:25:51;;;;;;;15.75;12.43;;;14.30;99.90;;;;;;5034576;28;20029;-72
2022/09/05 04:28:52;;;;;;;14.73;13.25;;;14.30;99.90;;;;;;5034597;28;20498;-72
2022/09/05 04:31:27;;;;;;;14.73;13.07;;;14.30;99.90;;;;;;5034040;28;20035;-72
2022/09/05 04:34:07;;;;;;;14.25;12.75;;;14.30;99.90;;;;;;5034354;28;20041;-73
2022/09/05 04:36:37;;;;;;;14.35;12.85;;;14.40;99.90;;;;;;5034430;28;20037;-72
2022/09/05 04:39:17;;;;;;;13.75;12.35;;;14.30;99.90;;;;;;5033983;28;20109;-72
2022/09/05 04:42:01;;;;;;;14.63;13.18;;;14.20;99.90;;;;;;5033273;28;20064;-72
2022/09/05 04:44:36;;;;;;;14.68;13.23;;;14.20;99.90;;;;;;5033903;28;20368;-72
2022/09/05 04:47:16;;;;;;;14.30;12.80;;;14.20;99.90;;;;;;5016408;28;20021;-71
2022/09/05 04:49:49;;;;;;;13.68;12.27;;;14.20;99.90;;;;;;5034059;28;20029;-72
2022/09/05 04:52:17;;;;;;;13.77;12.38;;;14.20;99.90;;;;;;5034150;28;20049;-72
2022/09/05 04:54:53;;;;;;;14.57;13.05;;;14.30;99.90;;;;;;5034390;28;20357;-72
2022/09/05 04:57:34;;;;;;;13.82;12.52;;;14.20;99.90;;;;;;5034077;28;20022;-72
2022/09/05 05:00:38;;;;;;;14.65;13.13;;;14.20;99.90;;;;;;5033828;28;20017;-71
2022/09/05 05:03:12;;;;;;;14.32;13.02;;;14.30;99.90;;;;;;5033875;28;20021;-72
2022/09/05 05:05:47;;;;;;;14.88;13.38;;;14.30;99.90;;;;;;5033937;28;20025;-72
2022/09/05 05:08:39;;;;;;;15.98;12.85;;;14.30;99.90;;;;;;5014044;28;20436;-71
2022/09/05 05:11:22;;;;;;;14.27;12.88;;;14.40;99.90;;;;;;5010086;28;20034;-71
2022/09/05 05:13:54;;;;;;;15.75;13.25;;;14.40;99.90;;;;;;5026906;28;20507;-71
2022/09/05 05:16:24;;;;;;;11.90;10.70;;;14.30;99.90;;;;;;5033358;28;20053;-72
2022/09/05 05:19:08;;;;;;;12.50;11.15;;;14.50;99.90;;;;;;5033649;28;20101;-71
2022/09/05 05:21:34;;;;;;;13.02;11.73;;;14.60;99.90;;;;;;5033498;28;20037;-72
2022/09/05 05:24:07;;;;;;;13.90;12.50;;;14.60;99.90;;;;;;5033948;28;20460;-71
2022/09/05 05:26:41;;;;;;;11.75;10.63;;;14.70;99.90;;;;;;5034998;28;20056;-72
2022/09/05 05:29:07;;;;;;;13.27;11.98;;;14.80;99.90;;;;;;5033456;28;20466;-72
2022/09/05 05:31:39;;;;;;;14.45;12.88;;;14.80;99.90;;;;;;5033139;28;20464;-72
2022/09/05 05:34:16;;;;;;;12.77;11.57;;;14.90;99.90;;;;;;5032811;28;20041;-72
2022/09/05 05:37:06;;;;;;;13.70;12.30;;;15.10;99.90;;;;;;5033304;28;20010;-72
2022/09/05 05:39:36;;;;;;;14.20;12.70;;;15.30;99.90;;;;;;5033304;28;20025;-72
2022/09/05 05:42:02;;;;;;;12.88;11.20;;;15.60;99.90;;;;;;5033274;28;20091;-72
2022/09/05 05:44:36;;;;;;;13.73;12.32;;;15.50;99.90;;;;;;5033214;28;20021;-71
2022/09/05 05:47:07;;;;;;;13.57;12.18;;;15.60;99.90;;;;;;5006355;28;20044;-71
2022/09/05 05:49:45;;;;;;;13.60;12.25;;;15.70;99.90;;;;;;5013311;28;20105;-71
2022/09/05 05:52:22;;;;;;;13.25;11.52;;;16.00;99.90;;;;;;5013152;28;20022;-71
2022/09/05 05:55:14;;;;;;;13.23;10.70;;;16.20;99.90;;;;;;5013279;28;20024;-71
2022/09/05 05:58:11;;;;;;;12.57;10.98;;;16.20;99.90;;;;;;5013148;28;20469;-71
2022/09/05 06:00:42;;;;;;;13.35;12.10;;;16.30;99.90;;;;;;5013068;28;20026;-71
2022/09/05 06:03:35;;;;;;;14.05;11.55;;;16.30;99.90;;;;;;5017727;28;20030;-70
2022/09/05 06:06:15;;;;;;;12.38;11.02;;;16.40;99.90;;;;;;5032882;28;20025;-70
2022/09/05 06:09:05;;;;;;;12.82;11.63;;;16.60;99.90;;;;;;5033190;28;20025;-71
2022/09/05 06:12:05;;;;;;;13.77;12.38;;;16.60;99.90;;;;;;5034221;28;20438;-72
2022/09/05 06:14:48;;;;;;;12.50;11.30;;;16.70;99.90;;;;;;5033308;28;20708;-72
2022/09/05 06:17:47;;;;;;;12.48;11.32;;;16.80;99.90;;;;;;5032738;28;20032;-71
2022/09/05 06:20:24;;;;;;;13.73;12.30;;;16.90;99.90;;;;;;5032730;28;20029;-71
2022/09/05 06:23:18;;;;;;;14.10;11.23;;;17.10;99.90;;;;;;5032673;28;20080;-72
2022/09/05 06:25:53;;;;;;;13.85;11.60;;;17.20;99.90;;;;;;4985067;28;20100;-71
2022/09/05 06:28:54;;;;;;;14.05;12.60;;;17.40;99.90;;;;;;5012726;28;20093;-71
2022/09/05 06:31:44;;;;;;;13.95;12.55;;;17.50;99.90;;;;;;4995206;28;20046;-75
2022/09/05 06:34:21;;;;;;;13.77;12.27;;;17.70;99.90;;;;;;5012693;28;20033;-74
2022/09/05 06:36:57;;;;;;;13.68;11.10;;;17.80;99.90;;;;;;5012619;28;20087;-74
2022/09/05 06:39:55;;;;;;;13.88;12.32;;;18.00;99.90;;;;;;5012587;28;20022;-71
2022/09/05 06:42:25;;;;;;;13.40;11.88;;;18.30;99.90;;;;;;5012448;28;20125;-71
2022/09/05 06:44:50;;;;;;;;;;;18.60;99.90;;;;;;5015520;28;20033;-71
2022/09/05 06:47:19;;;;;;;12.02;10.82;;;18.80;99.90;;;;;;5019259;28;19933;-71
2022/09/05 06:50:13;;;;;;;12.95;11.75;;;19.50;99.90;;;;;;5019207;28;20015;-72
2022/09/05 06:53:22;;;;;;;12.75;11.45;;;21.70;99.90;;;;;;5020476;28;20026;-73
2022/09/05 06:55:57;;;;;;;12.52;11.23;;;25.80;99.90;;;;;;5032962;28;20100;-72
2022/09/05 06:58:41;;;;;;;13.05;11.70;;;25.80;99.90;;;;;;5038241;28;20026;-72
2022/09/05 07:01:08;;;;;;;11.65;10.57;;;25.60;99.90;;;;;;5037979;28;20037;-72
2022/09/05 07:03:40;;;;;;;11.73;10.65;;;26.40;99.90;;;;;;5035020;28;20036;-72
2022/09/05 07:06:15;;;;;;;12.90;11.50;;;24.90;99.90;;;;;;5031826;28;20033;-72
2022/09/05 07:09:09;;;;;;;11.95;10.85;;;25.10;99.90;;;;;;5038367;28;20079;-72
2022/09/05 07:11:50;;;;;;;12.30;11.07;;;25.30;99.90;;;;;;5038563;28;20040;-73
2022/09/05 07:14:29;;;;;;;11.38;10.27;;;26.70;99.90;;;;;;5038361;28;20058;-73
2022/09/05 07:17:08;;;;;;;11.50;10.32;;;27.90;99.90;;;;;;5037961;28;20025;-72
2022/09/05 07:19:54;;;;;;;11.73;10.73;;;27.20;99.90;;;;;;5027846;28;20017;-72
2022/09/05 07:22:34;;;;;;;12.38;10.57;;;28.60;99.90;;;;;;5038241;28;20384;-72
2022/09/05 07:25:14;;;;;;;11.80;10.80;;;32.00;99.90;;;;;;5036862;28;20045;-72
2022/09/05 07:27:52;;;;;;;12.35;10.95;;;31.80;99.90;;;;;;5018269;28;20080;-72
2022/09/05 07:30:19;;;;;;;13.23;11.82;;;33.70;99.90;;;;;;5018397;28;20025;-73
2022/09/05 07:32:49;;;;;;;12.55;11.32;;;31.30;99.90;;;;;;5018055;28;20050;-72
2022/09/05 07:35:36;;;;;;;11.95;10.43;;;29.80;99.90;;;;;;5018437;28;20075;-72
2022/09/05 07:38:12;;;;;;;12.77;11.57;;;28.50;99.90;;;;;;5033012;28;20040;-72
2022/09/05 07:40:43;;;;;;;13.40;11.63;;;28.40;99.90;;;;;;5034825;28;20100;-73
2022/09/05 07:43:17;;;;;;;11.60;10.60;;;28.50;99.90;;;;;;5037982;28;20048;-72
2022/09/05 07:45:49;;;;;;;12.02;11.02;;;30.10;99.90;;;;;;5026382;28;20408;-73
2022/09/05 07:48:24;;;;;;;11.63;10.52;;;29.90;99.90;;;;;;5022130;28;20029;-72
2022/09/05 07:51:00;;;;;;;12.27;11.18;;;31.20;99.90;;;;;;5037992;28;20063;-72
2022/09/05 07:53:26;;;;;;;12.68;11.48;;;29.20;99.90;;;;;;5037939;28;20014;-72
2022/09/05 07:55:57;;;;;;;12.45;11.25;;;30.20;99.90;;;;;;5035998;28;20124;-72
2022/09/05 07:58:48;;;;;;;11.60;10.60;;;30.80;99.90;;;;;;5015447;28;20018;-72
2022/09/05 08:01:17;;;;;;;12.13;10.93;;;31.70;99.90;;;;;;5029363;28;20388;-72
2022/09/05 08:03:43;;;;;;;12.02;10.95;;;31.90;99.90;;;;;;5029309;28;20107;-73
2022/09/05 08:06:21;;;;;;;12.52;11.32;;;32.20;99.90;;;;;;5028782;28;20029;-72
2022/09/05 08:08:50;;;;;;;11.52;10.52;;;31.50;99.90;;;;;;5033797;28;20383;-72
2022/09/05 08:11:18;;;;;;;11.60;10.60;;;32.30;99.90;;;;;;5023785;28;20041;-72
2022/09/05 08:14:08;;;;;;;11.93;10.38;;;32.70;99.90;;;;;;5018339;28;20033;-72
2022/09/05 08:16:37;;;;;;;12.23;11.00;;;31.90;99.90;;;;;;5032628;28;20022;-73
2022/09/05 08:19:37;;;;;;;11.95;10.73;;;33.00;99.90;;;;;;5031792;28;20108;-73
2022/09/05 08:22:05;;;;;;;11.82;10.63;;;31.70;99.90;;;;;;5024016;28;20022;-72
2022/09/05 08:24:45;;;;;;;12.38;11.20;;;32.40;99.90;;;;;;5022911;28;20498;-72
2022/09/05 08:27:43;;;;;;;11.23;10.23;;;32.10;99.90;;;;;;5033947;28;20032;-73
2022/09/05 08:30:09;;;;;;;12.73;11.52;;;34.10;99.90;;;;;;5024341;28;20064;-72
2022/09/05 08:32:45;;;;;;;10.88;9.98;;;33.50;99.70;;;;;;5033464;28;20109;-73
2022/09/05 08:35:38;;;;;;;12.43;11.23;;;36.20;97.70;;;;;;5029701;28;20025;-72
2022/09/05 08:38:06;;;;;;;15.00;10.82;;;36.50;95.00;;;;;;5028595;28;20025;-72
2022/09/05 08:40:40;;;;;;;11.00;9.90;;;38.30;92.70;;;;;;5025224;28;20017;-72
2022/09/05 08:43:49;;;;;;;11.75;10.75;;;39.70;89.60;;;;;;5011955;28;20404;-72
2022/09/05 08:46:31;;;;;;;10.63;9.52;;;37.90;82.70;;;;;;4972673;28;20035;-73
2022/09/05 08:49:32;;;;;;;10.95;10.02;;;40.80;76.60;;;;;;5031644;28;20021;-72
2022/09/05 08:52:03;;;;;;;9.98;9.05;;;43.00;69.30;;;;;;5034134;28;20108;-73
2022/09/05 08:55:00;;;;;;;9.82;8.88;;;42.00;61.70;;;;;;5032946;28;20030;-73
2022/09/05 08:57:45;;;;;;;9.93;9.13;;;40.30;59.30;;;;;;5031129;28;20018;-72
2022/09/05 09:00:17;;;;;;;10.40;9.45;;;38.90;60.30;;;;;;5016354;28;20079;-72
2022/09/05 09:03:25;;;;;;;10.13;9.13;;;38.40;61.80;;;;;;5033672;28;20112;-73
2022/09/05 09:05:53;;;;;;;8.80;7.93;;;37.50;60.10;;;;;;5005335;28;20052;-73
2022/09/05 09:08:33;;;;;;;10.27;9.47;;;39.80;61.70;;;;;;5032554;28;20380;-72
2022/09/05 09:11:08;;;;;;;11.07;9.98;;;39.50;57.50;;;;;;5033734;28;20044;-73
2022/09/05 09:13:51;;;;;;;11.30;10.30;;;39.70;58.80;;;;;;5033626;28;20503;-72
2022/09/05 09:16:44;;;;;;;10.25;9.35;;;38.60;56.90;;;;;;5034014;28;20050;-73
2022/09/05 09:19:27;;;;;;;10.13;9.32;;;40.00;56.70;;;;;;5033338;28;20030;-73
2022/09/05 09:22:12;;;;;;;9.65;8.85;;;40.50;55.50;;;;;;5033450;28;20045;-73
2022/09/05 09:24:48;;;;;;;9.23;8.32;;;43.20;52.40;;;;;;5033279;28;20073;-73
2022/09/05 09:27:39;;;;;;;8.93;8.13;;;43.50;49.30;;;;;;5017580;28;20030;-73
2022/09/05 09:30:06;;;;;;;10.60;9.65;;;42.60;44.30;;;;;;5013495;28;20101;-73
2022/09/05 09:32:44;;;;;;;9.48;8.65;;;40.60;44.00;;;;;;5013203;28;20042;-72
2022/09/05 09:35:19;;;;;;;8.38;7.68;;;39.20;44.80;;;;;;5013462;28;20033;-73
2022/09/05 09:37:53;;;;;;;9.48;8.57;;;42.20;45.40;;;;;;5015353;28;20024;-72
2022/09/05 09:40:30;;;;;;;7.63;6.93;;;42.60;42.00;;;;;;5013289;28;20065;-74
2022/09/05 09:43:16;;;;;;;6.40;5.80;;;41.40;43.50;;;;;;5017748;28;20053;-72
2022/09/05 09:46:08;;;;;;;6.90;6.35;;;43.20;41.00;;;;;;5033339;28;20021;-72
2022/09/05 09:48:49;;;;;;;7.72;7.03;;;44.40;38.50;;;;;;5033256;28;20032;-73
2022/09/05 09:51:43;;;;;;;7.35;6.65;;;42.00;36.10;;;;;;5032868;28;20039;-73
2022/09/05 09:54:47;;;;;;;7.65;6.95;;;42.60;35.20;;;;;;5032919;28;20471;-73
2022/09/05 09:57:31;;;;;;;6.53;5.97;;;39.80;34.80;;;;;;5015287;28;20469;-72
2022/09/05 10:00:11;;;;;;;7.25;6.38;;;40.20;38.20;;;;;;5019341;28;20050;-73
2022/09/05 10:02:54;;;;;;;7.53;6.93;;;42.70;37.40;;;;;;5032612;28;20030;-73
2022/09/05 10:05:56;;;;;;;6.60;5.95;;;40.50;35.60;;;;;;5032874;28;20021;-72
2022/09/05 10:08:49;;;;;;;5.68;5.13;;;40.50;33.90;;;;;;5032853;28;20022;-72
2022/09/05 10:11:53;;;;;;;6.80;6.20;;;42.50;36.10;;;;;;5032884;28;20029;-73
2022/09/05 10:14:30;;;;;;;7.20;6.22;;;42.50;32.80;;;;;;5013033;28;20482;-73
2022/09/05 10:17:08;;;;;;;5.90;5.40;;;40.10;34.20;;;;;;5032552;28;20021;-73
2022/09/05 10:19:43;;;;;;;5.13;4.60;;;38.60;34.00;;;;;;5032472;28;20014;-72
2022/09/05 10:22:41;;;;;;;5.28;4.18;;;41.30;35.20;;;;;;5032421;28;20021;-72
2022/09/05 10:25:36;;;;;;;8.95;4.25;;;41.80;33.00;;;;;;5032353;28;20026;-72
2022/09/05 10:28:33;;;;;;;5.38;3.75;;;41.80;30.70;;;;;;5019059;28;20038;-72
2022/09/05 10:31:18;;;;;;;4.55;4.15;;;45.30;29.60;;;;;;5032286;28;20036;-73
2022/09/05 10:34:08;;;;;;;4.63;4.20;;;43.90;27.80;;;;;;5019458;28;20079;-73
2022/09/05 10:36:37;;;;;;;5.40;4.55;;;43.00;28.40;;;;;;5032103;28;20479;-73
2022/09/05 10:39:28;;;;;;;5.28;4.78;;;42.70;28.20;;;;;;5032218;28;20018;-73
2022/09/05 10:42:00;;;;;;;4.60;3.60;;;40.10;28.50;;;;;;5032180;28;20056;-72
2022/09/05 10:44:44;;;;;;;3.40;3.10;;;41.30;30.40;;;;;;5032156;28;20711;-73
2022/09/05 10:47:17;;;;;;;4.68;3.17;;;42.60;28.40;;;;;;5032183;28;20055;-73
2022/09/05 10:49:47;;;;;;;3.00;2.80;;;42.60;28.60;;;;;;5032092;28;20041;-73
2022/09/05 10:52:18;;;;;;;3.60;3.30;;;42.70;27.30;;;;;;5032124;28;20029;-72
2022/09/05 10:55:01;;;;;;;3.25;3.03;;;40.90;28.70;;;;;;5032176;28;20022;-73
2022/09/05 10:57:39;;;;;;;3.38;3.00;;;39.00;29.90;;;;;;5031853;28;20021;-72
2022/09/05 11:00:37;;;;;;;3.58;2.63;;;36.30;31.00;;;;;;5032140;28;20026;-73
2022/09/05 11:03:21;;;;;;;3.10;2.45;;;34.00;31.90;;;;;;5032141;28;20024;-72
2022/09/05 11:05:58;;;;;;;4.97;2.95;;;33.20;33.30;;;;;;5032062;28;20018;-72
2022/09/05 11:08:52;;;;;;;2.50;2.38;;;32.70;34.40;;;;;;5031895;28;20510;-72
2022/09/05 11:11:23;;;;;;;3.15;2.10;;;32.60;35.40;;;;;;5032222;28;20022;-72
2022/09/05 11:13:56;;;;;;;3.42;3.00;;;33.10;37.00;;;;;;5031965;28;20063;-73
2022/09/05 11:16:44;;;;;;;3.45;2.75;;;32.50;36.50;;;;;;5032117;28;20018;-72
2022/09/05 11:19:42;;;;;;;3.28;2.78;;;32.60;38.50;;;;;;5031731;28;20399;-74
2022/09/05 11:22:11;;;;;;;3.67;2.47;;;31.90;38.80;;;;;;5031949;28;20026;-72
2022/09/05 11:24:47;;;;;;;5.63;2.22;;;32.90;40.90;;;;;;5031565;28;20040;-73
2022/09/05 11:27:35;;;;;;;2.65;2.03;;;32.90;37.60;;;;;;5031783;28;20025;-72
2022/09/05 11:30:04;;;;;;;2.00;1.90;;;33.10;37.80;;;;;;5031398;28;20018;-73
2022/09/05 11:32:50;;;;;;;;;;;32.80;37.80;;;;;;5033462;28;20135;-74
2022/09/05 11:35:23;;;;;;;1.85;1.40;;;32.20;35.00;;;;;;5035481;28;19905;-73
2022/09/05 11:38:15;;;;;;;1.90;1.48;;;32.90;33.20;;;;;;5035525;28;20057;-72
2022/09/05 11:41:10;;;;;;;2.65;1.08;;;33.30;33.40;;;;;;4987067;28;20464;-73
2022/09/05 11:43:56;;;;;;;2.65;1.50;;;33.40;31.90;;;;;;5015777;28;20361;-73
2022/09/05 11:46:50;;;;;;;2.80;1.30;;;33.30;30.90;;;;;;5015557;28;20084;-72
2022/09/05 11:49:41;;;;;;;1.42;1.20;;;33.30;30.30;;;;;;5015382;28;20026;-73
2022/09/05 11:52:41;;;;;;;2.83;1.35;;;33.40;29.90;;;;;;5015665;28;20014;-73
2022/09/05 11:55:24;;;;;;;1.55;1.10;;;33.60;28.80;;;;;;5035122;28;20021;-74
2022/09/05 11:58:32;;;;;;;2.40;1.20;;;33.20;29.10;;;;;;5017262;28;20037;-72
2022/09/05 12:01:19;;;;;;;1.38;1.27;;;33.00;28.00;;;;;;5034956;28;20087;-73
2022/09/05 12:04:06;;;;;;;1.45;1.20;;;31.90;28.60;;;;;;5034400;28;20026;-73
2022/09/05 12:06:55;;;;;;;1.42;1.33;;;32.50;29.30;;;;;;5034962;28;20474;-72
2022/09/05 12:09:58;;;;;;;1.58;1.48;;;33.00;30.20;;;;;;5034948;28;20023;-73
2022/09/05 12:12:54;;;;;;;1.55;1.45;;;32.50;29.10;;;;;;5014990;28;20049;-73
2022/09/05 12:15:32;;;;;;;2.10;1.23;;;32.10;29.00;;;;;;5014969;28;20068;-73
2022/09/05 12:18:36;;;;;;;2.38;1.45;;;32.70;29.60;;;;;;5015131;28;20113;-72
2022/09/05 12:21:30;;;;;;;2.05;1.63;;;33.00;30.70;;;;;;5031022;28;20022;-73
2022/09/05 12:24:38;;;;;;;1.85;1.67;;;33.50;35.60;;;;;;5034285;28;20037;-74
2022/09/05 12:27:14;;;;;;;1.85;1.65;;;32.20;29.80;;;;;;4973194;28;20023;-72
2022/09/05 12:29:45;;;;;;;3.42;1.80;;;32.80;31.30;;;;;;5028917;28;20376;-73
2022/09/05 12:32:19;;;;;;;2.78;1.77;;;31.80;30.20;;;;;;5034079;28;20045;-74
2022/09/05 12:34:51;;;;;;;1.88;1.70;;;31.40;31.60;;;;;;5034333;28;20029;-73
2022/09/05 12:37:35;;;;;;;2.03;1.80;;;31.60;32.40;;;;;;5034266;28;20025;-73
2022/09/05 12:40:14;;;;;;;2.40;1.75;;;31.10;32.90;;;;;;5034206;28;20415;-73
2022/09/05 12:42:59;;;;;;;2.33;1.92;;;31.10;32.60;;;;;;5033741;28;20157;-73
2022/09/05 12:45:48;;;;;;;3.92;1.83;;;31.60;34.30;;;;;;5027762;28;20029;-73
2022/09/05 12:48:35;;;;;;;3.08;1.90;;;32.40;34.80;;;;;;5034011;28;20018;-72
2022/09/05 12:51:06;;;;;;;1.80;1.70;;;32.80;34.90;;;;;;5034095;28;20025;-73
2022/09/05 12:53:50;;;;;;;1.80;1.70;;;32.90;34.50;;;;;;5033944;28;20053;-73
2022/09/05 12:56:34;;;;;;;2.00;1.80;;;32.90;33.30;;;;;;5034028;28;20030;-73
2022/09/05 12:59:04;;;;;;;3.80;1.80;;;31.50;33.00;;;;;;5033916;28;20059;-73
2022/09/05 13:01:32;;;;;;;5.00;1.83;;;31.30;33.80;;;;;;5033757;28;20082;-73
2022/09/05 13:04:20;;;;;;;1.80;1.70;;;31.20;34.70;;;;;;5032789;28;20053;-74
2022/09/05 13:07:05;;;;;;;2.27;1.90;;;32.00;35.40;;;;;;5026991;28;20033;-73
2022/09/05 13:09:45;;;;;;;1.90;1.80;;;32.70;34.70;;;;;;5015581;28;20058;-72
2022/09/05 13:12:16;;;;;;;2.85;1.80;;;32.10;35.20;;;;;;5033273;28;20033;-73
2022/09/05 13:14:56;;;;;;;2.55;1.85;;;32.90;34.20;;;;;;5032778;28;20048;-73
2022/09/05 13:17:50;;;;;;;2.42;1.80;;;33.30;33.90;;;;;;5021531;28;20029;-73
2022/09/05 13:20:50;;;;;;;2.08;1.88;;;33.00;34.20;;;;;;5031168;28;20017;-74
2022/09/05 13:23:45;;;;;;;2.05;1.60;;;33.60;34.80;;;;;;5025598;28;20029;-73
2022/09/05 13:26:24;;;;;;;4.72;2.20;;;33.00;34.40;;;;;;5013357;28;20022;-72
2022/09/05 13:28:56;;;;;;;4.10;3.13;;;32.10;32.70;;;;;;5013318;28;20022;-73
2022/09/05 13:31:40;;;;;;;3.78;2.50;;;32.00;32.70;;;;;;5013015;28;20029;-74
2022/09/05 13:34:11;;;;;;;5.43;2.95;;;33.00;34.80;;;;;;5013509;28;20034;-74
2022/09/05 13:37:06;;;;;;;3.05;2.70;;;33.40;34.50;;;;;;5030107;28;20072;-73
2022/09/05 13:40:00;;;;;;;3.58;2.90;;;33.30;33.50;;;;;;5033105;28;20025;-74
2022/09/05 13:42:37;;;;;;;5.63;2.85;;;33.00;33.30;;;;;;5029335;28;20117;-74
2022/09/05 13:45:05;;;;;;;3.22;3.00;;;33.70;33.30;;;;;;5032928;28;20565;-73
2022/09/05 13:47:56;;;;;;;3.90;3.10;;;33.90;32.30;;;;;;5032860;28;20071;-73
2022/09/05 13:50:36;;;;;;;3.97;2.80;;;32.80;31.90;;;;;;5032827;28;20029;-73
2022/09/05 13:53:29;;;;;;;3.72;2.20;;;33.50;33.60;;;;;;5032611;28;20025;-73
2022/09/05 13:56:16;;;;;;;4.03;2.10;;;33.40;33.60;;;;;;5031392;28;20079;-73
2022/09/05 13:59:10;;;;;;;2.60;2.20;;;33.90;33.90;;;;;;5032788;28;20028;-73
2022/09/05 14:01:36;;;;;;;4.32;1.98;;;33.10;31.30;;;;;;5030068;28;20037;-73